Time;durP1;ratioP1;P1;durP2;ratioP2;P2;SDS_P1;SDS_P2;PMS_P1;PMS_P2;Temp;Humidity;BMP_temperature;BMP_pressure;BME280_temperature;BME280_humidity;BME280_pressure;Samples;Min_cycle;Max_cycle;Signal;HPM_P1;HPM_P2
2021/01/11 00:01:21;;;;;;;8.35;5.30;;;;;;;;;;5015429;28;89218;-60
2021/01/11 00:03:46;;;;;;;8.18;4.70;;;;;;;;;;4981468;28;89844;-59
2021/01/11 00:06:11;;;;;;;8.40;5.18;;;;;;;;;;4996220;28;88501;-60
2021/01/11 00:08:37;;;;;;;8.70;5.35;;;;;;;;;;5002596;28;87975;-60
2021/01/11 00:11:02;;;;;;;8.15;5.15;;;;;;;;;;5019631;28;89660;-60
2021/01/11 00:13:27;;;;;;;8.18;5.40;;;;;;;;;;5019399;28;88082;-60
2021/01/11 00:15:53;;;;;;;7.82;5.38;;;;;;;;;;5001875;28;88611;-60
2021/01/11 00:18:18;;;;;;;8.32;5.43;;;;;;;;;;5004987;28;88282;-60
2021/01/11 00:20:43;;;;;;;8.55;5.65;;;;;;;;;;4986434;28;87938;-60
2021/01/11 00:23:08;;;;;;;9.18;5.75;;;;;;;;;;4999387;28;89436;-60
2021/01/11 00:25:34;;;;;;;9.93;6.20;;;;;;;;;;5020014;28;88613;-60
2021/01/11 00:27:59;;;;;;;9.65;6.63;;;;;;;;;;4983171;28;88715;-59
2021/01/11 00:30:24;;;;;;;8.52;5.57;;;;;;;;;;5021398;28;87897;-60
2021/01/11 00:32:50;;;;;;;10.70;6.38;;;;;;;;;;5022270;28;88064;-59
2021/01/11 00:35:15;;;;;;;9.77;6.20;;;;;;;;;;5001979;28;89681;-59
2021/01/11 00:37:40;;;;;;;9.82;6.10;;;;;;;;;;5001867;28;89427;-59
2021/01/11 00:40:06;;;;;;;10.20;6.43;;;;;;;;;;5019824;28;87892;-60
2021/01/11 00:42:32;;;;;;;9.02;5.85;;;;;;;;;;5002064;28;88178;-60
2021/01/11 00:44:57;;;;;;;10.65;6.40;;;;;;;;;;5001580;28;87951;-59
2021/01/11 00:47:22;;;;;;;9.38;5.95;;;;;;;;;;5017970;28;89071;-59
2021/01/11 00:49:48;;;;;;;10.45;6.57;;;;;;;;;;5001226;28;90897;-59
2021/01/11 00:52:13;;;;;;;10.93;6.32;;;;;;;;;;4998500;28;88780;-59
2021/01/11 00:54:38;;;;;;;9.82;6.18;;;;;;;;;;5021958;28;87962;-59
2021/01/11 00:57:09;;;;;;;9.65;5.90;;;;;;;;;;4998915;28;90158;-59
2021/01/11 00:59:42;;;;;;;9.63;5.80;;;;;;;;;;4988562;28;91102;-59
2021/01/11 01:02:08;;;;;;;8.70;5.85;;;;;;;;;;5001090;28;89662;-59
2021/01/11 01:04:33;;;;;;;9.77;5.95;;;;;;;;;;5001462;28;87891;-59
2021/01/11 01:07:02;;;;;;;9.52;6.18;;;;;;;;;;5023011;28;89175;-59
2021/01/11 01:09:27;;;;;;;9.55;5.82;;;;;;;;;;5019538;28;87113;-59
2021/01/11 01:11:52;;;;;;;10.40;5.95;;;;;;;;;;5019033;28;87845;-59
2021/01/11 01:14:18;;;;;;;9.43;5.95;;;;;;;;;;5003843;28;87916;-59
2021/01/11 01:16:43;;;;;;;10.55;6.13;;;;;;;;;;5018491;28;88670;-59
2021/01/11 01:19:08;;;;;;;8.57;5.53;;;;;;;;;;4998968;28;87959;-59
2021/01/11 01:21:34;;;;;;;8.95;5.45;;;;;;;;;;5001404;28;88085;-59
2021/01/11 01:23:59;;;;;;;8.77;5.53;;;;;;;;;;5018920;28;88637;-59
2021/01/11 01:26:24;;;;;;;9.80;5.70;;;;;;;;;;5019320;28;87909;-59
2021/01/11 01:28:49;;;;;;;9.10;5.40;;;;;;;;;;5001213;28;88665;-59
2021/01/11 01:31:15;;;;;;;7.78;5.22;;;;;;;;;;5019038;28;89526;-59
2021/01/11 01:33:42;;;;;;;8.65;5.47;;;;;;;;;;5019307;28;87717;-59
2021/01/11 01:36:07;;;;;;;9.43;5.60;;;;;;;;;;5000954;28;87912;-60
2021/01/11 01:38:32;;;;;;;9.13;5.53;;;;;;;;;;5001242;28;88006;-60
2021/01/11 01:40:57;;;;;;;7.97;5.30;;;;;;;;;;5017479;28;88526;-60
2021/01/11 01:43:23;;;;;;;8.38;5.28;;;;;;;;;;5003516;28;89241;-59
2021/01/11 01:45:48;;;;;;;8.20;5.25;;;;;;;;;;5000287;28;88087;-59
2021/01/11 01:48:13;;;;;;;8.82;5.78;;;;;;;;;;4964968;28;90206;-60
2021/01/11 01:50:39;;;;;;;8.00;5.25;;;;;;;;;;5003102;28;87873;-60
2021/01/11 01:53:04;;;;;;;7.82;4.97;;;;;;;;;;5000991;28;88852;-59
2021/01/11 01:55:29;;;;;;;9.05;5.63;;;;;;;;;;4983397;28;90872;-60
2021/01/11 01:57:55;;;;;;;9.07;5.53;;;;;;;;;;5019234;28;87789;-60
2021/01/11 02:00:22;;;;;;;8.95;5.07;;;;;;;;;;4984364;28;89175;-60
2021/01/11 02:02:47;;;;;;;8.77;5.63;;;;;;;;;;5023601;28;87912;-60
2021/01/11 02:05:12;;;;;;;9.10;5.75;;;;;;;;;;4999979;28;88857;-60
2021/01/11 02:07:53;;;;;;;9.70;5.90;;;;;;;;;;5000033;28;89681;-60
2021/01/11 02:10:24;;;;;;;8.95;5.57;;;;;;;;;;5016602;28;87928;-60
2021/01/11 02:13:10;;;;;;;9.05;5.38;;;;;;;;;;5015810;28;87942;-59
2021/01/11 02:15:39;;;;;;;8.35;5.68;;;;;;;;;;5016428;28;88713;-60
2021/01/11 02:18:06;;;;;;;8.82;5.45;;;;;;;;;;5000493;28;87912;-60
2021/01/11 02:20:37;;;;;;;10.00;5.78;;;;;;;;;;4985233;28;88034;-60
2021/01/11 02:23:21;;;;;;;9.27;5.70;;;;;;;;;;4983645;28;88172;-59
2021/01/11 02:25:50;;;;;;;9.15;5.85;;;;;;;;;;5020430;28;87935;-60
2021/01/11 02:28:20;;;;;;;8.38;5.60;;;;;;;;;;4983887;28;88676;-59
2021/01/11 02:30:45;;;;;;;8.55;5.47;;;;;;;;;;4998341;28;88900;-58
2021/01/11 02:33:14;;;;;;;8.85;5.97;;;;;;;;;;4998770;28;88531;-60
2021/01/11 02:35:48;;;;;;;9.27;5.65;;;;;;;;;;4999995;28;88156;-60
2021/01/11 02:38:18;;;;;;;8.10;5.70;;;;;;;;;;5015456;28;87876;-60
2021/01/11 02:40:43;;;;;;;9.98;6.22;;;;;;;;;;4986228;28;88008;-60
2021/01/11 02:43:08;;;;;;;9.32;5.68;;;;;;;;;;5015602;28;88829;-60
2021/01/11 02:45:34;;;;;;;10.10;6.47;;;;;;;;;;5017885;28;87907;-60
2021/01/11 02:48:06;;;;;;;9.82;5.70;;;;;;;;;;5018434;28;87900;-59
2021/01/11 02:50:31;;;;;;;;;;;;;;;;;;5018569;28;87928;-59
2021/01/11 02:52:58;;;;;;;7.47;4.93;;;;;;;;;;5016866;28;88647;-60
2021/01/11 02:55:44;;;;;;;9.40;5.72;;;;;;;;;;4997925;28;89929;-61
2021/01/11 02:58:09;;;;;;;8.40;5.65;;;;;;;;;;4997377;28;88768;-61
2021/01/11 03:00:35;;;;;;;10.43;5.60;;;;;;;;;;5017390;28;89629;-61
2021/01/11 03:03:00;;;;;;;8.43;5.22;;;;;;;;;;4998720;28;88443;-61
2021/01/11 03:05:26;;;;;;;9.07;5.60;;;;;;;;;;4998251;28;89461;-60
2021/01/11 03:07:55;;;;;;;9.20;5.90;;;;;;;;;;4982613;28;90214;-59
2021/01/11 03:10:20;;;;;;;10.18;6.50;;;;;;;;;;5002301;28;88546;-60
2021/01/11 03:12:45;;;;;;;8.88;5.68;;;;;;;;;;5018446;28;87624;-59
2021/01/11 03:15:11;;;;;;;9.20;5.60;;;;;;;;;;4996796;28;88274;-60
2021/01/11 03:17:36;;;;;;;8.90;5.70;;;;;;;;;;5019057;28;88339;-60
2021/01/11 03:20:02;;;;;;;8.48;5.38;;;;;;;;;;4999575;28;88871;-61
2021/01/11 03:22:27;;;;;;;10.07;5.60;;;;;;;;;;5017820;28;88479;-60
2021/01/11 03:24:52;;;;;;;8.65;5.60;;;;;;;;;;5017168;28;88213;-60
2021/01/11 03:27:18;;;;;;;9.60;5.90;;;;;;;;;;5014994;28;88627;-59
2021/01/11 03:29:43;;;;;;;9.07;5.82;;;;;;;;;;4983141;28;88079;-60
2021/01/11 03:32:08;;;;;;;9.55;5.93;;;;;;;;;;4997087;28;89720;-60
2021/01/11 03:34:33;;;;;;;9.63;6.47;;;;;;;;;;4987440;28;89290;-60
2021/01/11 03:36:59;;;;;;;8.95;6.05;;;;;;;;;;5019001;28;87273;-60
2021/01/11 03:39:24;;;;;;;9.18;5.80;;;;;;;;;;5017695;28;87950;-59
2021/01/11 03:41:49;;;;;;;8.15;5.57;;;;;;;;;;5000433;28;88020;-59
2021/01/11 03:44:15;;;;;;;8.75;6.05;;;;;;;;;;4999543;28;88705;-60
2021/01/11 03:46:40;;;;;;;10.52;6.68;;;;;;;;;;5005259;28;88430;-60
2021/01/11 03:49:05;;;;;;;9.45;6.30;;;;;;;;;;5000892;28;88656;-59
2021/01/11 03:51:31;;;;;;;9.07;5.85;;;;;;;;;;5020402;28;88304;-60
2021/01/11 03:53:56;;;;;;;10.57;6.15;;;;;;;;;;5002111;28;89187;-60
2021/01/11 03:56:21;;;;;;;10.77;6.63;;;;;;;;;;5018607;28;88477;-60
2021/01/11 03:58:47;;;;;;;9.05;6.00;;;;;;;;;;5002363;28;88243;-60
2021/01/11 04:01:12;;;;;;;10.43;6.28;;;;;;;;;;5000993;28;87237;-60
2021/01/11 04:03:37;;;;;;;10.07;6.38;;;;;;;;;;5022409;28;87967;-59
2021/01/11 04:06:02;;;;;;;11.43;7.20;;;;;;;;;;5020925;28;88590;-60
2021/01/11 04:08:28;;;;;;;11.52;7.93;;;;;;;;;;5019842;28;89259;-60
2021/01/11 04:10:53;;;;;;;10.60;6.60;;;;;;;;;;5002212;28;88552;-60
2021/01/11 04:13:19;;;;;;;11.35;7.20;;;;;;;;;;5005372;28;87953;-60
2021/01/11 04:15:45;;;;;;;9.85;6.45;;;;;;;;;;5002114;28;89813;-60
2021/01/11 04:18:10;;;;;;;9.38;6.00;;;;;;;;;;5003764;28;88020;-60
2021/01/11 04:20:35;;;;;;;9.77;6.57;;;;;;;;;;5004033;28;87838;-60
2021/01/11 04:23:01;;;;;;;9.63;6.25;;;;;;;;;;5005385;28;88052;-60
2021/01/11 04:25:26;;;;;;;9.55;5.72;;;;;;;;;;5003128;28;88128;-60
2021/01/11 04:27:52;;;;;;;9.82;6.53;;;;;;;;;;5024659;28;87887;-60
2021/01/11 04:30:17;;;;;;;9.80;6.30;;;;;;;;;;5001669;28;88806;-60
2021/01/11 04:32:43;;;;;;;10.25;7.13;;;;;;;;;;5023915;28;88683;-60
2021/01/11 04:35:08;;;;;;;9.65;6.30;;;;;;;;;;5007547;28;88680;-60
2021/01/11 04:37:34;;;;;;;10.57;6.65;;;;;;;;;;4990689;28;88365;-60
2021/01/11 04:39:59;;;;;;;11.02;6.95;;;;;;;;;;5023404;28;87965;-59
2021/01/11 04:42:28;;;;;;;10.32;6.40;;;;;;;;;;5024828;28;89255;-60
2021/01/11 04:44:57;;;;;;;9.32;5.97;;;;;;;;;;5005987;28;88507;-60
2021/01/11 04:47:23;;;;;;;10.13;6.50;;;;;;;;;;5004717;28;88423;-59
2021/01/11 04:49:48;;;;;;;9.15;5.82;;;;;;;;;;5020570;28;87172;-60
2021/01/11 04:52:15;;;;;;;10.77;6.43;;;;;;;;;;5003817;28;88239;-60
2021/01/11 04:54:41;;;;;;;10.57;6.13;;;;;;;;;;4991707;28;88627;-60
2021/01/11 04:57:06;;;;;;;10.48;6.60;;;;;;;;;;5001130;28;88853;-60
2021/01/11 04:59:31;;;;;;;9.77;6.10;;;;;;;;;;4987088;28;87913;-60
2021/01/11 05:01:56;;;;;;;8.52;5.82;;;;;;;;;;4992060;28;88527;-60
2021/01/11 05:04:22;;;;;;;10.10;6.28;;;;;;;;;;5002894;28;88292;-59
2021/01/11 05:06:47;;;;;;;9.65;6.18;;;;;;;;;;5023954;28;87926;-60
2021/01/11 05:09:14;;;;;;;10.27;6.10;;;;;;;;;;5001231;28;88600;-59
2021/01/11 05:11:39;;;;;;;8.77;6.18;;;;;;;;;;5024230;28;88172;-60
2021/01/11 05:14:04;;;;;;;9.57;6.25;;;;;;;;;;5022743;28;87723;-60
2021/01/11 05:16:30;;;;;;;8.85;5.97;;;;;;;;;;5021291;28;87875;-60
2021/01/11 05:19:01;;;;;;;10.65;6.40;;;;;;;;;;5023441;28;87864;-60
2021/01/11 05:21:41;;;;;;;10.73;6.53;;;;;;;;;;5018161;28;88698;-60
2021/01/11 05:24:26;;;;;;;11.50;6.85;;;;;;;;;;5021477;28;87943;-60
2021/01/11 05:26:52;;;;;;;9.57;5.90;;;;;;;;;;5020193;28;87917;-60
2021/01/11 05:29:17;;;;;;;10.35;6.22;;;;;;;;;;5015386;28;88055;-59
2021/01/11 05:32:03;;;;;;;9.85;6.53;;;;;;;;;;5008564;28;89830;-60
2021/01/11 05:34:47;;;;;;;10.45;6.65;;;;;;;;;;5019368;28;88939;-59
2021/01/11 05:37:31;;;;;;;10.23;6.30;;;;;;;;;;5002592;28;90028;-60
2021/01/11 05:40:09;;;;;;;9.95;6.72;;;;;;;;;;5018646;28;87899;-60
2021/01/11 05:42:35;;;;;;;10.95;6.70;;;;;;;;;;4974862;28;88118;-60
2021/01/11 05:45:10;;;;;;;11.95;7.20;;;;;;;;;;5003968;28;88025;-60
2021/01/11 05:47:51;;;;;;;10.95;6.75;;;;;;;;;;5003428;28;88804;-59
2021/01/11 05:50:17;;;;;;;11.23;7.45;;;;;;;;;;5003541;28;87852;-60
2021/01/11 05:52:42;;;;;;;10.63;6.60;;;;;;;;;;5008068;28;88695;-60
2021/01/11 05:55:24;;;;;;;9.63;6.68;;;;;;;;;;4986361;28;88732;-59
2021/01/11 05:58:07;;;;;;;9.43;5.82;;;;;;;;;;5017497;28;87888;-60
2021/01/11 06:00:34;;;;;;;9.82;5.97;;;;;;;;;;5021085;28;88100;-60
2021/01/11 06:03:00;;;;;;;10.00;6.25;;;;;;;;;;5022980;28;87766;-60
2021/01/11 06:05:26;;;;;;;9.65;5.97;;;;;;;;;;5003930;28;87723;-60
2021/01/11 06:07:51;;;;;;;10.13;6.13;;;;;;;;;;5008272;28;88148;-61
2021/01/11 06:10:17;;;;;;;8.90;5.78;;;;;;;;;;5019425;28;88567;-60
2021/01/11 06:12:42;;;;;;;11.32;6.07;;;;;;;;;;4990472;28;88751;-61
2021/01/11 06:15:08;;;;;;;10.20;6.22;;;;;;;;;;5019001;28;88389;-60
2021/01/11 06:17:34;;;;;;;8.98;5.70;;;;;;;;;;5020818;28;87983;-60
2021/01/11 06:19:59;;;;;;;9.07;5.95;;;;;;;;;;5005667;28;90580;-60
2021/01/11 06:22:44;;;;;;;10.13;6.25;;;;;;;;;;5000268;28;87947;-59
2021/01/11 06:25:25;;;;;;;10.05;6.15;;;;;;;;;;5001164;28;89809;-60
2021/01/11 06:28:03;;;;;;;10.20;6.35;;;;;;;;;;5018008;28;87858;-61
2021/01/11 06:30:36;;;;;;;9.52;6.07;;;;;;;;;;5019588;28;87811;-60
2021/01/11 06:33:01;;;;;;;11.50;7.15;;;;;;;;;;5019995;28;88424;-59
2021/01/11 06:35:30;;;;;;;11.40;6.97;;;;;;;;;;5019123;28;88525;-60
2021/01/11 06:38:18;;;;;;;13.68;7.93;;;;;;;;;;5021029;28;88570;-59
2021/01/11 06:40:44;;;;;;;12.68;8.13;;;;;;;;;;5022350;28;88597;-59
2021/01/11 06:43:09;;;;;;;10.38;5.82;;;;;;;;;;4988798;28;88427;-59
2021/01/11 06:45:38;;;;;;;10.88;7.00;;;;;;;;;;5002723;28;88570;-59
2021/01/11 06:48:04;;;;;;;10.23;6.00;;;;;;;;;;5002864;28;88322;-60
2021/01/11 06:50:30;;;;;;;10.02;6.45;;;;;;;;;;5004489;28;89807;-60
2021/01/11 06:52:57;;;;;;;10.90;6.85;;;;;;;;;;5006452;28;90923;-60
2021/01/11 06:55:22;;;;;;;16.98;10.07;;;;;;;;;;4986849;28;87425;-60
2021/01/11 06:57:48;;;;;;;17.63;10.65;;;;;;;;;;4994338;28;89257;-60
2021/01/11 07:00:13;;;;;;;11.23;7.13;;;;;;;;;;5019435;28;89353;-59
2021/01/11 07:02:42;;;;;;;12.20;7.28;;;;;;;;;;4971838;28;88956;-59
2021/01/11 07:05:07;;;;;;;11.65;6.63;;;;;;;;;;5003430;28;88085;-60
2021/01/11 07:07:33;;;;;;;13.23;7.32;;;;;;;;;;4987720;28;88134;-59
2021/01/11 07:09:59;;;;;;;10.88;6.63;;;;;;;;;;5003456;28;87934;-58
2021/01/11 07:12:24;;;;;;;12.32;7.38;;;;;;;;;;5001041;28;88267;-59
2021/01/11 07:14:53;;;;;;;9.90;6.63;;;;;;;;;;5007061;28;89983;-60
2021/01/11 07:17:35;;;;;;;10.40;6.03;;;;;;;;;;4977169;28;90101;-60
2021/01/11 07:20:00;;;;;;;10.15;6.30;;;;;;;;;;5017908;28;87195;-60
2021/01/11 07:22:25;;;;;;;11.40;6.10;;;;;;;;;;5003093;28;88089;-60
2021/01/11 07:24:50;;;;;;;9.80;5.72;;;;;;;;;;5025575;28;88501;-59
2021/01/11 07:27:16;;;;;;;10.20;6.15;;;;;;;;;;5019686;28;89245;-59
2021/01/11 07:29:43;;;;;;;10.85;6.18;;;;;;;;;;5006341;28;90099;-59
2021/01/11 07:32:08;;;;;;;9.10;5.43;;;;;;;;;;5003649;28;87931;-59
2021/01/11 07:34:33;;;;;;;10.68;6.22;;;;;;;;;;5023392;28;87830;-60
2021/01/11 07:36:59;;;;;;;10.93;6.03;;;;;;;;;;5023027;28;89544;-59
2021/01/11 07:39:28;;;;;;;8.73;5.68;;;;;;;;;;5016480;28;88170;-60
2021/01/11 07:41:54;;;;;;;9.23;6.05;;;;;;;;;;5023778;28;88320;-58
2021/01/11 07:44:22;;;;;;;8.65;5.70;;;;;;;;;;4993687;28;87764;-64
2021/01/11 07:47:14;;;;;;;8.77;5.63;;;;;;;;;;5008423;22;89683;-60
2021/01/11 07:49:40;;;;;;;9.20;5.35;;;;;;;;;;5040895;27;87912;-60
2021/01/11 07:52:06;;;;;;;8.43;5.47;;;;;;;;;;5041081;27;88684;-60
2021/01/11 07:54:31;;;;;;;9.15;5.60;;;;;;;;;;5036947;27;88523;-60
2021/01/11 07:56:57;;;;;;;9.10;5.88;;;;;;;;;;5054383;27;87930;-60
2021/01/11 07:59:22;;;;;;;8.77;5.57;;;;;;;;;;5061056;27;88499;-60
2021/01/11 08:01:48;;;;;;;8.77;5.45;;;;;;;;;;5064075;27;88355;-59
2021/01/11 08:04:13;;;;;;;8.98;5.78;;;;;;;;;;5062290;27;87872;-60
2021/01/11 08:06:57;;;;;;;8.57;5.70;;;;;;;;;;5064490;27;88433;-60
2021/01/11 08:09:26;;;;;;;8.23;4.72;;;;;;;;;;5061412;27;87435;-59
2021/01/11 08:12:11;;;;;;;9.20;5.88;;;;;;;;;;5055339;27;87763;-60
2021/01/11 08:14:36;;;;;;;7.47;4.82;;;;;;;;;;5063845;27;87892;-59
2021/01/11 08:17:03;;;;;;;7.38;4.88;;;;;;;;;;5057071;27;88715;-60
2021/01/11 08:19:29;;;;;;;8.10;4.90;;;;;;;;;;5061783;27;87969;-60
2021/01/11 08:21:58;;;;;;;7.57;4.63;;;;;;;;;;5056835;27;87952;-59
2021/01/11 08:24:23;;;;;;;8.35;4.82;;;;;;;;;;5060054;27;87949;-59
2021/01/11 08:26:49;;;;;;;8.13;4.78;;;;;;;;;;5051901;27;88678;-60
2021/01/11 08:29:15;;;;;;;7.88;4.55;;;;;;;;;;5059141;27;88656;-60
2021/01/11 08:31:40;;;;;;;7.05;4.40;;;;;;;;;;5067444;27;89400;-60
2021/01/11 08:34:06;;;;;;;7.25;4.07;;;;;;;;;;5047784;27;89430;-59
2021/01/11 08:36:31;;;;;;;6.90;4.70;;;;;;;;;;5063759;27;87977;-59
2021/01/11 08:39:00;;;;;;;6.38;4.20;;;;;;;;;;5064311;27;90223;-59
2021/01/11 08:41:25;;;;;;;7.00;4.00;;;;;;;;;;5062115;27;88634;-59
2021/01/11 08:43:51;;;;;;;6.30;4.00;;;;;;;;;;5066514;27;88610;-59
2021/01/11 08:46:16;;;;;;;6.65;4.13;;;;;;;;;;5062981;27;88106;-60
2021/01/11 08:48:41;;;;;;;6.20;4.22;;;;;;;;;;5066538;27;87870;-58
2021/01/11 08:51:06;;;;;;;6.10;3.83;;;;;;;;;;5063604;27;88519;-59
2021/01/11 08:53:35;;;;;;;6.53;3.92;;;;;;;;;;5065996;27;88027;-59
2021/01/11 08:56:01;;;;;;;6.00;4.43;;;;;;;;;;5054620;27;88905;-59
2021/01/11 08:58:27;;;;;;;7.15;4.43;;;;;;;;;;5052829;27;87815;-59
2021/01/11 09:01:06;;;;;;;7.95;4.57;;;;;;;;;;5066640;27;88197;-61
2021/01/11 09:03:41;;;;;;;7.90;4.55;;;;;;;;;;5062913;27;87952;-59
2021/01/11 09:06:07;;;;;;;6.43;4.32;;;;;;;;;;5059795;27;88866;-59
2021/01/11 09:08:32;;;;;;;6.90;4.38;;;;;;;;;;5065751;27;87872;-59
2021/01/11 09:10:57;;;;;;;6.22;4.03;;;;;;;;;;5063769;27;88192;-58
2021/01/11 09:13:25;;;;;;;7.50;4.87;;;;;;;;;;5062738;27;88572;-59
2021/01/11 09:15:51;;;;;;;5.85;4.10;;;;;;;;;;5060562;27;88406;-60
2021/01/11 09:18:16;;;;;;;5.97;4.15;;;;;;;;;;5063611;27;88588;-60
2021/01/11 09:20:42;;;;;;;7.53;4.57;;;;;;;;;;5064072;27;88229;-61
2021/01/11 09:23:08;;;;;;;6.32;4.50;;;;;;;;;;5051129;27;87517;-61
2021/01/11 09:25:34;;;;;;;7.43;5.10;;;;;;;;;;5056254;27;87942;-61
2021/01/11 09:28:00;;;;;;;8.10;5.05;;;;;;;;;;5038317;27;89104;-61
2021/01/11 09:30:25;;;;;;;8.35;5.47;;;;;;;;;;5052051;27;88666;-61
2021/01/11 09:32:50;;;;;;;8.10;4.93;;;;;;;;;;5053374;27;88024;-60
2021/01/11 09:35:15;;;;;;;7.57;4.95;;;;;;;;;;5053776;27;88012;-57
2021/01/11 09:37:41;;;;;;;7.20;4.60;;;;;;;;;;5056633;27;88131;-61
2021/01/11 09:40:07;;;;;;;7.68;5.30;;;;;;;;;;5059741;27;87972;-60
2021/01/11 09:42:32;;;;;;;7.05;4.80;;;;;;;;;;5051456;27;87997;-60
2021/01/11 09:44:57;;;;;;;6.95;4.53;;;;;;;;;;5052063;27;87988;-61
2021/01/11 09:47:23;;;;;;;8.40;4.75;;;;;;;;;;5053535;27;87281;-60
2021/01/11 09:49:48;;;;;;;9.73;5.15;;;;;;;;;;5052488;27;88010;-58
2021/01/11 09:52:14;;;;;;;7.68;5.25;;;;;;;;;;5053938;27;88620;-58
2021/01/11 09:54:39;;;;;;;7.25;4.97;;;;;;;;;;5052794;27;88986;-59
2021/01/11 09:57:05;;;;;;;7.53;4.72;;;;;;;;;;5053934;27;88746;-59
2021/01/11 09:59:30;;;;;;;7.03;4.65;;;;;;;;;;5054672;27;87920;-58
2021/01/11 10:01:55;;;;;;;7.30;4.75;;;;;;;;;;5054707;27;88653;-61
2021/01/11 10:04:20;;;;;;;8.10;5.07;;;;;;;;;;5058316;27;88387;-62
2021/01/11 10:06:47;;;;;;;6.40;4.45;;;;;;;;;;5061830;27;89101;-59
2021/01/11 10:09:13;;;;;;;8.40;5.38;;;;;;;;;;5061765;27;88329;-61
2021/01/11 10:11:39;;;;;;;7.95;4.55;;;;;;;;;;5061440;27;87967;-62
2021/01/11 10:14:05;;;;;;;5.85;4.22;;;;;;;;;;5040796;27;88154;-61
2021/01/11 10:16:30;;;;;;;6.60;4.35;;;;;;;;;;5062248;27;87936;-58
2021/01/11 10:18:55;;;;;;;6.68;4.47;;;;;;;;;;5046218;27;88691;-61
2021/01/11 10:21:21;;;;;;;7.90;4.75;;;;;;;;;;5061927;27;89044;-59
2021/01/11 10:23:46;;;;;;;7.43;4.75;;;;;;;;;;5063999;27;88636;-59
2021/01/11 10:26:18;;;;;;;6.60;4.35;;;;;;;;;;5063079;27;88457;-59
2021/01/11 10:28:43;;;;;;;8.07;4.60;;;;;;;;;;5066408;27;88401;-57
2021/01/11 10:31:08;;;;;;;7.28;4.38;;;;;;;;;;5062446;27;88614;-58
2021/01/11 10:33:34;;;;;;;7.03;4.57;;;;;;;;;;5064667;27;87994;-59
2021/01/11 10:35:59;;;;;;;7.03;4.57;;;;;;;;;;5066238;27;87869;-59
2021/01/11 10:38:24;;;;;;;8.18;4.53;;;;;;;;;;5062124;27;88569;-59
2021/01/11 10:40:50;;;;;;;7.07;4.10;;;;;;;;;;5067100;27;88850;-59
2021/01/11 10:43:15;;;;;;;7.70;4.30;;;;;;;;;;5062234;27;88666;-59
2021/01/11 10:45:40;;;;;;;7.28;4.80;;;;;;;;;;5064962;27;88424;-58
2021/01/11 10:48:06;;;;;;;7.30;4.70;;;;;;;;;;5062876;27;88380;-59
2021/01/11 10:50:31;;;;;;;7.28;4.50;;;;;;;;;;5064233;27;88710;-59
2021/01/11 10:52:56;;;;;;;6.28;4.35;;;;;;;;;;5064232;27;87922;-59
2021/01/11 10:55:21;;;;;;;6.93;4.30;;;;;;;;;;5063096;27;89099;-58
2021/01/11 10:57:48;;;;;;;8.05;4.57;;;;;;;;;;5065602;27;87946;-59
2021/01/11 11:00:13;;;;;;;6.13;4.28;;;;;;;;;;5063605;27;87741;-59
2021/01/11 11:02:39;;;;;;;7.97;4.85;;;;;;;;;;5064247;27;87959;-58
2021/01/11 11:05:05;;;;;;;7.63;4.97;;;;;;;;;;5063882;27;87839;-58
2021/01/11 11:07:34;;;;;;;6.95;4.55;;;;;;;;;;5062833;27;88574;-59
2021/01/11 11:10:00;;;;;;;6.22;4.05;;;;;;;;;;5064124;27;88666;-59
2021/01/11 11:12:26;;;;;;;6.78;4.43;;;;;;;;;;5063042;27;87945;-59
2021/01/11 11:14:52;;;;;;;6.93;4.50;;;;;;;;;;5063752;27;88690;-59
2021/01/11 11:17:17;;;;;;;7.22;4.50;;;;;;;;;;5061122;27;89895;-59
2021/01/11 11:19:42;;;;;;;7.50;4.35;;;;;;;;;;5064067;27;90031;-59
2021/01/11 11:22:08;;;;;;;6.80;4.32;;;;;;;;;;5058144;27;88602;-59
2021/01/11 11:24:33;;;;;;;6.55;3.90;;;;;;;;;;5060001;27;87811;-59
2021/01/11 11:27:02;;;;;;;8.95;5.30;;;;;;;;;;5061592;27;88157;-59
2021/01/11 11:29:27;;;;;;;6.30;4.15;;;;;;;;;;5057704;27;87991;-60
2021/01/11 11:31:52;;;;;;;5.32;3.60;;;;;;;;;;5062682;27;89336;-59
2021/01/11 11:34:17;;;;;;;6.40;3.90;;;;;;;;;;5061593;27;91709;-61
2021/01/11 11:36:43;;;;;;;6.00;3.95;;;;;;;;;;5047212;27;90004;-59
2021/01/11 11:39:08;;;;;;;7.00;4.28;;;;;;;;;;5062812;27;88226;-60
2021/01/11 11:41:34;;;;;;;5.95;3.85;;;;;;;;;;5061758;27;88403;-59
2021/01/11 11:44:00;;;;;;;5.40;3.88;;;;;;;;;;5063849;27;88701;-62
2021/01/11 11:46:28;;;;;;;6.05;3.80;;;;;;;;;;5058405;27;90089;-60
2021/01/11 11:48:53;;;;;;;5.78;4.00;;;;;;;;;;5063951;27;90794;-58
2021/01/11 11:51:18;;;;;;;6.25;4.05;;;;;;;;;;5062034;27;88291;-57
2021/01/11 11:53:43;;;;;;;7.25;4.53;;;;;;;;;;5065701;27;88510;-60
2021/01/11 11:56:09;;;;;;;6.85;4.30;;;;;;;;;;5055232;27;89191;-59
2021/01/11 11:58:34;;;;;;;6.70;4.10;;;;;;;;;;5055970;27;88072;-59
2021/01/11 12:00:59;;;;;;;6.18;4.25;;;;;;;;;;5062210;27;88465;-59
2021/01/11 12:03:25;;;;;;;5.88;4.05;;;;;;;;;;5063665;27;88805;-59
2021/01/11 12:05:52;;;;;;;4.70;3.50;;;;;;;;;;5068140;27;88348;-59
2021/01/11 12:08:18;;;;;;;5.85;4.03;;;;;;;;;;5065472;27;88421;-59
2021/01/11 12:10:44;;;;;;;5.53;4.00;;;;;;;;;;5068634;27;88934;-60
2021/01/11 12:13:09;;;;;;;7.20;4.22;;;;;;;;;;5064198;27;87149;-59
2021/01/11 12:15:34;;;;;;;6.35;4.13;;;;;;;;;;5067098;27;89290;-60
2021/01/11 12:18:00;;;;;;;6.63;4.30;;;;;;;;;;5066761;27;88411;-60
2021/01/11 12:20:25;;;;;;;6.07;4.28;;;;;;;;;;5046373;27;88664;-58
2021/01/11 12:22:50;;;;;;;5.85;3.97;;;;;;;;;;5049599;27;88648;-60
2021/01/11 12:25:15;;;;;;;6.75;4.32;;;;;;;;;;5065964;27;88362;-60
2021/01/11 12:27:41;;;;;;;5.80;3.90;;;;;;;;;;5063579;27;87900;-59
2021/01/11 12:30:06;;;;;;;5.95;3.80;;;;;;;;;;5065670;27;87856;-60
2021/01/11 12:32:32;;;;;;;5.97;3.97;;;;;;;;;;5065115;27;88292;-59
2021/01/11 12:34:57;;;;;;;5.85;3.90;;;;;;;;;;5065840;27;87915;-58
2021/01/11 12:37:22;;;;;;;6.18;3.95;;;;;;;;;;5063655;27;87907;-59
2021/01/11 12:39:48;;;;;;;5.53;3.75;;;;;;;;;;5066907;27;87951;-59
2021/01/11 12:42:13;;;;;;;5.88;3.80;;;;;;;;;;5065253;27;88401;-59
2021/01/11 12:44:38;;;;;;;7.63;4.43;;;;;;;;;;5065354;27;88725;-61
2021/01/11 12:47:04;;;;;;;5.95;4.03;;;;;;;;;;5065505;27;88328;-60
2021/01/11 12:49:30;;;;;;;5.30;3.67;;;;;;;;;;5065981;27;87975;-59
2021/01/11 12:51:55;;;;;;;5.72;3.65;;;;;;;;;;5066903;27;88342;-59
2021/01/11 12:54:21;;;;;;;5.97;3.95;;;;;;;;;;5046439;27;89828;-60
2021/01/11 12:56:46;;;;;;;5.32;3.58;;;;;;;;;;5067416;27;87910;-59
2021/01/11 12:59:11;;;;;;;5.60;3.55;;;;;;;;;;5065000;27;88293;-60
2021/01/11 13:01:37;;;;;;;5.25;3.53;;;;;;;;;;5067686;27;87872;-60
2021/01/11 13:04:02;;;;;;;4.38;3.40;;;;;;;;;;5065813;27;87909;-59
2021/01/11 13:06:31;;;;;;;5.38;3.70;;;;;;;;;;5061354;27;88686;-58
2021/01/11 13:08:57;;;;;;;4.82;3.50;;;;;;;;;;5065990;27;88664;-60
2021/01/11 13:11:24;;;;;;;5.10;3.55;;;;;;;;;;5064900;27;88803;-60
2021/01/11 13:13:49;;;;;;;4.60;3.10;;;;;;;;;;5067544;27;87914;-60
2021/01/11 13:16:24;;;;;;;4.55;3.30;;;;;;;;;;5048261;27;87812;-60
2021/01/11 13:18:50;;;;;;;5.78;3.80;;;;;;;;;;5070113;27;88411;-60
2021/01/11 13:21:16;;;;;;;4.18;3.30;;;;;;;;;;5062286;27;88767;-60
2021/01/11 13:23:41;;;;;;;4.43;3.00;;;;;;;;;;5060839;27;88490;-60
2021/01/11 13:26:06;;;;;;;4.90;3.50;;;;;;;;;;5046201;27;89117;-59
2021/01/11 13:28:32;;;;;;;5.28;3.65;;;;;;;;;;5060903;27;88081;-59
2021/01/11 13:30:57;;;;;;;6.63;4.10;;;;;;;;;;5065971;27;88656;-59
2021/01/11 13:33:26;;;;;;;5.35;3.78;;;;;;;;;;5064376;27;89760;-52
2021/01/11 13:35:52;;;;;;;5.00;3.47;;;;;;;;;;5061691;27;88405;-62
2021/01/11 13:38:21;;;;;;;5.28;3.50;;;;;;;;;;5062402;27;88864;-65
2021/01/11 13:40:48;;;;;;;5.97;4.07;;;;;;;;;;5066551;27;87855;-62
2021/01/11 13:43:13;;;;;;;6.60;3.95;;;;;;;;;;5046071;27;88363;-62
2021/01/11 13:45:38;;;;;;;5.10;3.70;;;;;;;;;;5064981;27;88468;-63
2021/01/11 13:48:04;;;;;;;4.90;3.40;;;;;;;;;;5066510;27;88550;-65
2021/01/11 13:50:29;;;;;;;5.32;3.40;;;;;;;;;;5066636;27;87817;-63
2021/01/11 13:52:55;;;;;;;5.22;3.35;;;;;;;;;;5064673;27;87983;-64
2021/01/11 13:55:20;;;;;;;5.68;3.50;;;;;;;;;;5063741;27;88389;-65
2021/01/11 13:57:45;;;;;;;6.47;3.92;;;;;;;;;;5050770;27;88749;-64
2021/01/11 14:00:11;;;;;;;4.78;3.53;;;;;;;;;;5061188;27;88614;-65
2021/01/11 14:02:36;;;;;;;4.78;3.42;;;;;;;;;;5061668;27;88373;-66
2021/01/11 14:05:02;;;;;;;5.07;3.45;;;;;;;;;;5063886;27;88566;-67
2021/01/11 14:07:28;;;;;;;5.38;3.40;;;;;;;;;;5058437;27;89121;-64
2021/01/11 14:09:53;;;;;;;5.43;3.63;;;;;;;;;;5060116;27;88672;-64
2021/01/11 14:12:22;;;;;;;4.60;3.15;;;;;;;;;;5046415;27;88104;-64
2021/01/11 14:14:50;;;;;;;5.10;3.50;;;;;;;;;;5043550;27;89007;-64
2021/01/11 14:17:15;;;;;;;4.78;3.70;;;;;;;;;;5060936;27;88039;-64
2021/01/11 14:19:41;;;;;;;4.68;3.40;;;;;;;;;;5046316;27;90785;-62
2021/01/11 14:22:07;;;;;;;5.88;3.25;;;;;;;;;;5057611;27;89955;-62
2021/01/11 14:24:32;;;;;;;4.35;3.10;;;;;;;;;;5062962;27;89832;-61
2021/01/11 14:26:57;;;;;;;4.65;3.22;;;;;;;;;;5063652;27;87876;-56
2021/01/11 14:29:23;;;;;;;4.60;3.25;;;;;;;;;;5046709;27;89692;-58
2021/01/11 14:31:52;;;;;;;4.10;2.88;;;;;;;;;;5066323;27;88353;-60
2021/01/11 14:34:17;;;;;;;5.40;3.53;;;;;;;;;;5061583;27;88633;-58
2021/01/11 14:36:43;;;;;;;4.40;3.13;;;;;;;;;;5065511;27;87788;-57
2021/01/11 14:39:08;;;;;;;4.03;3.20;;;;;;;;;;5061833;27;87130;-63